createdAt,value
2019-04-30T00:10:02.549Z,4.55
2019-04-30T00:15:11.098Z,5.50
2019-04-30T00:20:18.445Z,4.85
2019-04-30T00:25:28.588Z,5.65
2019-04-30T00:30:39.334Z,5.10
2019-04-30T00:35:45.392Z,5.12
2019-04-30T00:40:52.448Z,5.53
2019-04-30T00:45:59.452Z,5.62
2019-04-30T00:51:07.527Z,5.33
2019-04-30T00:56:19.996Z,5.28
2019-04-30T01:01:43.591Z,6.28
2019-04-30T01:11:55.301Z,5.05
2019-04-30T01:17:03.916Z,5.10
2019-04-30T01:22:11.434Z,5.30
2019-04-30T01:27:20.275Z,5.17
2019-04-30T01:32:28.728Z,4.85
2019-04-30T01:37:39.292Z,5.15
2019-04-30T01:42:48.681Z,5.60
2019-04-30T01:48:00.624Z,5.53
2019-04-30T01:53:04.747Z,4.97
2019-04-30T01:58:33.349Z,4.87
2019-04-30T02:03:40.452Z,4.67
2019-04-30T02:08:49.277Z,4.55
2019-04-30T02:13:56.577Z,5.17
2019-04-30T02:19:04.580Z,5.20
2019-04-30T02:24:11.590Z,5.05
2019-04-30T02:29:19.109Z,4.50
2019-04-30T02:34:39.823Z,4.78
2019-04-30T02:39:46.114Z,5.40
2019-04-30T02:44:54.123Z,5.10
2019-04-30T02:50:15.227Z,4.65
2019-04-30T02:55:19.468Z,5.03
2019-04-30T03:00:32.527Z,5.12
2019-04-30T03:05:35.588Z,5.08
2019-04-30T03:10:42.568Z,5.00
2019-04-30T03:15:49.530Z,4.75
2019-04-30T03:21:21.265Z,5.08
2019-04-30T03:31:35.731Z,4.47
2019-04-30T03:36:42.608Z,5.20
2019-04-30T03:41:50.134Z,5.83
2019-04-30T03:46:59.290Z,4.60
2019-04-30T03:52:06.484Z,4.92
2019-04-30T03:57:13.508Z,5.60
2019-04-30T04:02:40.480Z,5.30
2019-04-30T04:08:05.237Z,4.75
2019-04-30T04:13:13.061Z,4.83
2019-04-30T04:18:20.482Z,5.53
2019-04-30T04:23:32.863Z,5.00
2019-04-30T04:33:45.918Z,4.67
2019-04-30T04:38:52.593Z,5.12
2019-04-30T04:44:00.239Z,5.00
2019-04-30T04:54:13.458Z,5.00
2019-04-30T04:59:20.562Z,4.58
2019-04-30T05:04:29.816Z,5.00
2019-04-30T05:09:37.467Z,5.02
2019-04-30T05:14:44.446Z,4.90
2019-04-30T05:19:51.440Z,4.72
2019-04-30T05:24:58.985Z,5.10
2019-04-30T05:30:07.061Z,4.90
2019-04-30T05:35:14.565Z,6.37
2019-04-30T05:40:21.580Z,5.20
2019-04-30T05:45:30.595Z,4.72
2019-04-30T05:50:39.073Z,5.15
2019-04-30T05:55:46.431Z,5.00
2019-04-30T06:00:53.447Z,4.70
2019-04-30T06:06:00.503Z,4.83
2019-04-30T06:11:12.264Z,4.37
2019-04-30T06:16:23.269Z,4.20
2019-04-30T06:21:30.507Z,4.60
2019-04-30T06:26:39.352Z,4.20
2019-04-30T06:31:48.517Z,4.30
2019-04-30T06:36:57.123Z,4.58
2019-04-30T06:42:10.161Z,4.08
2019-04-30T06:47:14.613Z,4.20
2019-04-30T06:52:23.519Z,4.28
2019-04-30T06:57:30.439Z,3.80
2019-04-30T07:02:39.304Z,3.58
2019-04-30T07:08:09.285Z,4.15
2019-04-30T07:13:29.688Z,3.65
2019-04-30T07:18:38.660Z,3.92
2019-04-30T07:23:45.893Z,3.70
2019-04-30T07:28:55.353Z,3.83
2019-04-30T07:34:01.462Z,3.65
2019-04-30T07:39:10.081Z,3.22
2019-04-30T07:44:31.157Z,3.37
2019-04-30T07:49:45.944Z,3.27
2019-04-30T07:59:41.431Z,4.66
2019-04-30T08:05:03.259Z,3.90
2019-04-30T08:15:19.761Z,3.20
2019-04-30T08:20:29.702Z,3.72
2019-04-30T08:25:36.594Z,3.40
2019-04-30T08:30:45.635Z,7.97
2019-04-30T08:35:52.599Z,4.12
2019-04-30T08:41:00.855Z,3.37
2019-04-30T08:46:09.430Z,3.47
2019-04-30T08:51:19.253Z,3.08
2019-04-30T08:56:26.445Z,3.25
2019-04-30T09:01:33.590Z,3.00
2019-04-30T09:06:40.558Z,3.17
2019-04-30T09:11:53.062Z,3.12
2019-04-30T09:16:56.486Z,3.08
2019-04-30T09:22:03.480Z,2.83
2019-04-30T09:27:10.882Z,5.58
2019-04-30T09:32:19.284Z,3.12
2019-04-30T09:37:26.567Z,4.45
2019-04-30T09:42:33.555Z,2.85
2019-04-30T09:47:42.065Z,3.17
2019-04-30T09:52:49.959Z,2.80
2019-04-30T09:57:58.891Z,2.77
2019-04-30T10:03:07.521Z,2.70
2019-04-30T10:08:15.464Z,2.72
2019-04-30T10:13:22.478Z,2.83
2019-04-30T10:18:29.560Z,2.92
2019-04-30T10:23:36.476Z,5.37
2019-04-30T10:28:46.284Z,3.70
2019-04-30T10:38:59.694Z,3.08
2019-04-30T10:44:08.904Z,3.52
2019-04-30T10:49:16.105Z,3.12
2019-04-30T10:54:26.359Z,3.45
2019-04-30T11:14:51.587Z,3.00
2019-04-30T11:19:59.200Z,2.95
2019-04-30T11:25:07.416Z,3.20
2019-04-30T11:30:21.361Z,3.45
2019-04-30T11:35:25.268Z,6.00
2019-04-30T11:40:36.954Z,3.40
2019-04-30T11:47:25.461Z,3.47
2019-04-30T11:52:32.626Z,3.17
2019-04-30T11:57:41.056Z,3.47
2019-04-30T12:02:52.598Z,5.78
2019-04-30T12:18:31.573Z,3.70
2019-04-30T12:23:38.612Z,3.65
2019-04-30T12:32:25.688Z,2.98
2019-04-30T12:37:32.670Z,3.33
2019-04-30T12:42:39.779Z,3.37
2019-04-30T12:47:51.881Z,3.47
2019-04-30T12:58:12.266Z,2.80
2019-04-30T13:03:20.598Z,2.80
2019-04-30T13:12:21.770Z,2.90
2019-04-30T13:22:48.854Z,2.70
2019-04-30T13:28:03.054Z,3.25
2019-04-30T13:38:01.539Z,3.00
2019-04-30T13:45:53.667Z,2.80
2019-04-30T13:58:16.373Z,3.05
2019-04-30T14:03:38.961Z,3.17
2019-04-30T14:08:50.579Z,2.92
2019-04-30T14:13:59.679Z,3.47
2019-04-30T14:19:10.957Z,2.60
2019-04-30T14:30:09.365Z,2.62
2019-04-30T14:35:19.364Z,2.42
2019-04-30T14:40:30.376Z,2.33
2019-04-30T14:45:56.670Z,2.80
2019-04-30T14:51:04.730Z,2.45
2019-04-30T14:56:20.334Z,2.40
2019-04-30T15:01:37.431Z,4.22
2019-04-30T15:10:05.367Z,7.62
2019-04-30T15:18:54.841Z,2.85
2019-04-30T15:26:57.678Z,2.45
2019-04-30T15:32:03.632Z,2.77
2019-04-30T15:39:43.320Z,2.52
2019-04-30T15:44:50.612Z,2.80
2019-04-30T15:53:31.844Z,2.55
2019-04-30T15:58:40.316Z,2.65
2019-04-30T16:08:58.863Z,2.77
2019-04-30T16:18:55.252Z,4.08
2019-04-30T16:34:16.573Z,2.00
2019-04-30T16:40:21.445Z,1.92
2019-04-30T16:50:41.668Z,2.20
2019-04-30T16:57:15.572Z,1.85
2019-04-30T17:02:24.476Z,1.67
2019-04-30T17:07:42.254Z,1.57
2019-04-30T17:14:25.853Z,5.33
2019-04-30T17:19:32.728Z,2.12
2019-04-30T17:24:39.781Z,2.70
2019-04-30T17:29:46.583Z,2.95
2019-04-30T17:34:53.655Z,4.47
2019-04-30T17:40:00.604Z,2.70
2019-04-30T17:49:29.701Z,2.80
2019-04-30T17:58:37.505Z,6.72
2019-04-30T18:03:44.698Z,3.50
2019-04-30T18:14:23.931Z,3.20
2019-04-30T18:29:07.603Z,4.10
2019-04-30T18:39:26.374Z,3.87
2019-04-30T18:44:33.563Z,4.30
2019-04-30T18:51:42.632Z,7.00
2019-04-30T18:56:48.985Z,9.25
2019-04-30T19:01:56.465Z,8.70
2019-04-30T19:11:33.209Z,6.03
2019-04-30T19:20:49.585Z,6.72
2019-04-30T19:25:59.565Z,8.48
2019-04-30T19:31:09.226Z,6.67
2019-04-30T19:36:18.331Z,6.37
2019-04-30T19:42:00.914Z,6.17
2019-04-30T19:47:09.315Z,7.65
2019-04-30T19:52:19.003Z,6.95
2019-04-30T19:57:25.460Z,7.03
2019-04-30T20:05:43.660Z,8.85
2019-04-30T20:13:33.087Z,10.13
2019-04-30T20:19:01.657Z,13.22
2019-04-30T20:24:08.581Z,14.73
2019-04-30T20:29:15.600Z,20.77
2019-04-30T20:38:54.270Z,16.50
2019-04-30T20:44:06.641Z,13.88
2019-04-30T20:54:34.249Z,13.00
2019-04-30T20:59:44.264Z,13.60
2019-04-30T21:04:51.481Z,11.57
2019-04-30T21:14:02.314Z,9.98
2019-04-30T21:28:29.757Z,7.50
2019-04-30T21:33:47.732Z,10.30
2019-04-30T21:40:20.022Z,9.48
2019-04-30T21:45:29.166Z,9.15
2019-04-30T21:58:09.799Z,9.45
2019-04-30T22:03:16.770Z,9.83
2019-04-30T22:08:23.723Z,9.63
2019-04-30T22:13:30.669Z,9.88
2019-04-30T22:24:31.276Z,10.30
2019-04-30T22:36:38.828Z,15.38
2019-04-30T22:46:19.742Z,24.70
2019-04-30T22:51:26.647Z,24.63
2019-04-30T23:01:44.307Z,18.23
2019-04-30T23:06:51.636Z,18.75
2019-04-30T23:11:58.585Z,18.30
2019-04-30T23:17:06.254Z,18.12
2019-04-30T23:22:13.448Z,24.02
2019-04-30T23:27:20.449Z,18.93
2019-04-30T23:32:27.649Z,15.45
2019-04-30T23:37:34.573Z,14.58
2019-04-30T23:42:41.601Z,13.85
2019-04-30T23:47:48.584Z,13.78
2019-04-30T23:53:00.291Z,13.20
2019-04-30T23:58:07.567Z,14.03
